sensor_id;sensor_type;location;lat;lon;timestamp;pressure;altitude;pressure_sealevel;temperature;humidity
48089;BME280;33867;50.314;7.802;2022-07-23T02:44:09;100424.22;;;18.18;86.48
48089;BME280;33867;50.314;7.802;2022-07-23T02:53:44;100413.75;;;17.86;87.84
48089;BME280;33867;50.314;7.802;2022-07-23T03:08:06;100413.00;;;17.92;86.12
48089;BME280;33867;50.314;7.802;2022-07-23T03:34:54;100437.06;;;18.03;85.49
48089;BME280;33867;50.314;7.802;2022-07-23T05:01:29;100474.41;;;17.65;84.55
48089;BME280;33867;50.314;7.802;2022-07-23T05:25:42;100493.59;;;17.34;85.73
48089;BME280;33867;50.314;7.802;2022-07-23T05:29:33;100489.97;;;17.56;85.01
48089;BME280;33867;50.314;7.802;2022-07-23T05:53:01;100512.50;;;17.50;86.48
48089;BME280;33867;50.314;7.802;2022-07-23T06:27:18;100521.72;;;23.13;62.88
48089;BME280;33867;50.314;7.802;2022-07-23T06:40:48;100524.72;;;27.57;50.25
48089;BME280;33867;50.314;7.802;2022-07-23T06:44:08;100524.22;;;25.82;53.78
48089;BME280;33867;50.314;7.802;2022-07-23T06:47:28;100531.66;;;24.32;59.48
48089;BME280;33867;50.314;7.802;2022-07-23T06:50:47;100544.19;;;23.84;62.11
48089;BME280;33867;50.314;7.802;2022-07-23T06:54:12;100538.19;;;23.94;61.84
48089;BME280;33867;50.314;7.802;2022-07-23T06:57:37;100540.81;;;24.62;57.64
48089;BME280;33867;50.314;7.802;2022-07-23T07:00:58;100537.56;;;26.49;51.92
48089;BME280;33867;50.314;7.802;2022-07-23T07:04:17;100545.13;;;25.06;56.90
48089;BME280;33867;50.314;7.802;2022-07-23T07:07:37;100544.31;;;24.69;59.15
48089;BME280;33867;50.314;7.802;2022-07-23T07:10:57;100552.75;;;24.38;60.73
48089;BME280;33867;50.314;7.802;2022-07-23T07:14:16;100560.00;;;23.64;59.57
48089;BME280;33867;50.314;7.802;2022-07-23T07:17:39;100566.03;;;23.48;62.91
48089;BME280;33867;50.314;7.802;2022-07-23T07:20:59;100573.22;;;23.49;63.13
48089;BME280;33867;50.314;7.802;2022-07-23T07:24:18;100581.84;;;23.52;62.36
48089;BME280;33867;50.314;7.802;2022-07-23T07:27:38;100574.78;;;23.38;63.68
48089;BME280;33867;50.314;7.802;2022-07-23T07:30:58;100574.09;;;24.42;61.80
48089;BME280;33867;50.314;7.802;2022-07-23T07:34:23;100568.19;;;25.77;57.76
48089;BME280;33867;50.314;7.802;2022-07-23T07:37:47;100573.13;;;26.57;55.29
48089;BME280;33867;50.314;7.802;2022-07-23T07:41:09;100571.06;;;26.93;52.85
48089;BME280;33867;50.314;7.802;2022-07-23T07:44:29;100576.47;;;27.28;49.91
48089;BME280;33867;50.314;7.802;2022-07-23T07:47:49;100582.81;;;27.12;51.73
48089;BME280;33867;50.314;7.802;2022-07-23T07:51:08;100585.34;;;26.61;52.59
48089;BME280;33867;50.314;7.802;2022-07-23T07:54:31;100585.94;;;26.28;53.16
48089;BME280;33867;50.314;7.802;2022-07-23T07:57:53;100591.38;;;26.46;53.02
48089;BME280;33867;50.314;7.802;2022-07-23T08:01:14;100595.44;;;26.56;52.96
48089;BME280;33867;50.314;7.802;2022-07-23T08:04:35;100582.59;;;27.30;50.47
48089;BME280;33867;50.314;7.802;2022-07-23T08:07:56;100581.00;;;27.96;49.34
48089;BME280;33867;50.314;7.802;2022-07-23T08:11:16;100581.31;;;28.33;48.18
48089;BME280;33867;50.314;7.802;2022-07-23T08:14:37;100583.78;;;28.73;46.30
48089;BME280;33867;50.314;7.802;2022-07-23T08:17:59;100581.94;;;29.28;45.27
48089;BME280;33867;50.314;7.802;2022-07-23T08:21:23;100586.00;;;29.20;45.80
48089;BME280;33867;50.314;7.802;2022-07-23T08:24:52;100588.69;;;29.10;44.98
48089;BME280;33867;50.314;7.802;2022-07-23T08:28:14;100585.00;;;29.26;45.06
48089;BME280;33867;50.314;7.802;2022-07-23T08:31:44;100579.97;;;29.50;45.26
48089;BME280;33867;50.314;7.802;2022-07-23T08:35:06;100582.16;;;29.80;43.43
48089;BME280;33867;50.314;7.802;2022-07-23T08:38:33;100579.22;;;29.60;43.56
48089;BME280;33867;50.314;7.802;2022-07-23T08:41:52;100588.63;;;29.32;44.78
48089;BME280;33867;50.314;7.802;2022-07-23T08:45:12;100595.06;;;28.89;45.73
48089;BME280;33867;50.314;7.802;2022-07-23T08:48:34;100593.88;;;29.01;45.55
48089;BME280;33867;50.314;7.802;2022-07-23T08:51:54;100592.31;;;28.67;46.35
48089;BME280;33867;50.314;7.802;2022-07-23T08:55:16;100595.56;;;28.42;47.80
48089;BME280;33867;50.314;7.802;2022-07-23T08:58:35;100605.91;;;28.13;47.58
48089;BME280;33867;50.314;7.802;2022-07-23T09:01:54;100601.78;;;27.82;48.24
48089;BME280;33867;50.314;7.802;2022-07-23T09:05:14;100601.38;;;27.28;48.13
48089;BME280;33867;50.314;7.802;2022-07-23T09:08:36;100611.94;;;27.02;49.36
48089;BME280;33867;50.314;7.802;2022-07-23T09:15:23;100605.50;;;27.71;48.41
48089;BME280;33867;50.314;7.802;2022-07-23T09:19:11;100606.97;;;28.45;45.95
48089;BME280;33867;50.314;7.802;2022-07-23T10:18:10;100599.16;;;29.57;41.74
48089;BME280;33867;50.314;7.802;2022-07-23T11:18:15;100559.06;;;32.23;36.05
48089;BME280;33867;50.314;7.802;2022-07-23T11:21:53;100552.38;;;32.19;35.80
48089;BME280;33867;50.314;7.802;2022-07-23T13:31:04;100530.75;;;34.22;29.54
48089;BME280;33867;50.314;7.802;2022-07-23T14:01:01;100521.19;;;34.52;28.64
48089;BME280;33867;50.314;7.802;2022-07-23T14:04:32;100517.44;;;34.38;29.00
48089;BME280;33867;50.314;7.802;2022-07-23T14:07:52;100521.66;;;34.36;28.78
48089;BME280;33867;50.314;7.802;2022-07-23T14:11:12;100515.66;;;34.23;28.11
48089;BME280;33867;50.314;7.802;2022-07-23T14:14:31;100515.97;;;33.64;28.60
48089;BME280;33867;50.314;7.802;2022-07-23T14:17:51;100518.31;;;33.52;27.51
48089;BME280;33867;50.314;7.802;2022-07-23T14:21:51;100517.19;;;33.48;28.55
48089;BME280;33867;50.314;7.802;2022-07-23T14:26:21;100519.97;;;33.48;28.92
48089;BME280;33867;50.314;7.802;2022-07-23T14:35:21;100510.06;;;33.31;28.30
48089;BME280;33867;50.314;7.802;2022-07-23T14:39:57;100517.06;;;33.24;28.72
48089;BME280;33867;50.314;7.802;2022-07-23T14:44:10;100518.25;;;32.68;28.25
48089;BME280;33867;50.314;7.802;2022-07-23T14:47:31;100510.59;;;32.94;30.11
48089;BME280;33867;50.314;7.802;2022-07-23T14:51:07;100509.25;;;32.76;28.58
48089;BME280;33867;50.314;7.802;2022-07-23T14:59:28;100502.88;;;31.91;31.42
48089;BME280;33867;50.314;7.802;2022-07-23T15:02:53;100504.78;;;31.95;30.55
48089;BME280;33867;50.314;7.802;2022-07-23T15:06:44;100495.84;;;30.97;30.00
48089;BME280;33867;50.314;7.802;2022-07-23T15:20:44;100500.78;;;30.12;30.27
48089;BME280;33867;50.314;7.802;2022-07-23T15:44:25;100492.97;;;29.34;33.53
48089;BME280;33867;50.314;7.802;2022-07-23T15:47:48;100480.63;;;29.84;32.60
48089;BME280;33867;50.314;7.802;2022-07-23T15:56:43;100500.91;;;29.53;33.19
48089;BME280;33867;50.314;7.802;2022-07-23T16:06:45;100501.75;;;28.72;34.62
48089;BME280;33867;50.314;7.802;2022-07-23T16:11:21;100514.22;;;28.75;34.94
48089;BME280;33867;50.314;7.802;2022-07-23T16:19:54;100515.19;;;27.64;33.83
48089;BME280;33867;50.314;7.802;2022-07-23T16:23:43;100512.56;;;27.58;34.51
48089;BME280;33867;50.314;7.802;2022-07-23T17:40:15;100548.03;;;26.47;37.54
48089;BME280;33867;50.314;7.802;2022-07-23T18:03:26;100549.34;;;26.33;41.08
48089;BME280;33867;50.314;7.802;2022-07-23T18:11:50;100554.59;;;25.64;41.14
48089;BME280;33867;50.314;7.802;2022-07-23T18:23:08;100567.13;;;25.78;43.38
48089;BME280;33867;50.314;7.802;2022-07-23T18:27:17;100565.44;;;25.89;43.39
48089;BME280;33867;50.314;7.802;2022-07-23T18:30:54;100566.78;;;25.86;43.71
48089;BME280;33867;50.314;7.802;2022-07-23T18:34:31;100564.84;;;25.75;44.46
48089;BME280;33867;50.314;7.802;2022-07-23T18:38:43;100559.53;;;25.62;45.09
48089;BME280;33867;50.314;7.802;2022-07-23T18:46:58;100573.00;;;25.28;46.05
48089;BME280;33867;50.314;7.802;2022-07-23T18:50:47;100579.06;;;25.19;46.51
48089;BME280;33867;50.314;7.802;2022-07-23T18:59:17;100591.88;;;24.95;46.78
48089;BME280;33867;50.314;7.802;2022-07-23T19:03:51;100595.66;;;24.45;49.19
48089;BME280;33867;50.314;7.802;2022-07-23T19:07:26;100601.09;;;23.59;51.08
48089;BME280;33867;50.314;7.802;2022-07-23T19:14:27;100602.34;;;23.25;51.76
48089;BME280;33867;50.314;7.802;2022-07-23T19:22:57;100622.88;;;22.58;51.21
48089;BME280;33867;50.314;7.802;2022-07-23T19:26:17;100635.53;;;22.59;52.33
48089;BME280;33867;50.314;7.802;2022-07-23T19:29:40;100624.50;;;22.79;52.54
48089;BME280;33867;50.314;7.802;2022-07-23T19:33:10;100634.88;;;22.76;51.79
48089;BME280;33867;50.314;7.802;2022-07-23T19:37:34;100634.34;;;22.35;53.00
48089;BME280;33867;50.314;7.802;2022-07-23T19:42:00;100651.66;;;21.96;54.03
48089;BME280;33867;50.314;7.802;2022-07-23T19:45:36;100656.50;;;21.87;53.88
48089;BME280;33867;50.314;7.802;2022-07-23T19:52:55;100666.00;;;22.24;54.10
48089;BME280;33867;50.314;7.802;2022-07-23T19:56:18;100659.25;;;22.20;53.88
48089;BME280;33867;50.314;7.802;2022-07-23T19:59:58;100659.91;;;22.29;53.93
48089;BME280;33867;50.314;7.802;2022-07-23T20:03:26;100662.19;;;22.25;54.77
48089;BME280;33867;50.314;7.802;2022-07-23T20:11:40;100660.94;;;21.95;54.50
48089;BME280;33867;50.314;7.802;2022-07-23T20:15:46;100654.53;;;21.48;55.06
48089;BME280;33867;50.314;7.802;2022-07-23T20:24:19;100658.66;;;21.24;55.96
48089;BME280;33867;50.314;7.802;2022-07-23T20:37:17;100686.97;;;21.38;56.79
48089;BME280;33867;50.314;7.802;2022-07-23T20:40:45;100702.03;;;21.14;56.84
48089;BME280;33867;50.314;7.802;2022-07-23T20:44:15;100701.66;;;21.23;57.01
48089;BME280;33867;50.314;7.802;2022-07-23T20:47:43;100704.81;;;21.20;57.42
48089;BME280;33867;50.314;7.802;2022-07-23T20:51:47;100711.88;;;20.67;56.95
48089;BME280;33867;50.314;7.802;2022-07-23T21:00:11;100714.97;;;20.92;56.94
48089;BME280;33867;50.314;7.802;2022-07-23T21:03:52;100717.47;;;20.87;57.54
48089;BME280;33867;50.314;7.802;2022-07-23T21:07:23;100717.63;;;20.79;57.30
48089;BME280;33867;50.314;7.802;2022-07-23T21:16:03;100717.50;;;20.59;58.81
48089;BME280;33867;50.314;7.802;2022-07-23T21:19:40;100724.72;;;20.38;59.20
48089;BME280;33867;50.314;7.802;2022-07-23T21:27:56;100739.88;;;20.41;59.08
48089;BME280;33867;50.314;7.802;2022-07-23T21:31:18;100736.38;;;20.26;59.81
48089;BME280;33867;50.314;7.802;2022-07-23T21:35:15;100743.75;;;20.25;60.53
48089;BME280;33867;50.314;7.802;2022-07-23T21:38:35;100741.13;;;20.17;60.72
48089;BME280;33867;50.314;7.802;2022-07-23T21:42:19;100742.75;;;20.11;60.63
48089;BME280;33867;50.314;7.802;2022-07-23T21:55:21;100756.94;;;19.58;61.26
48089;BME280;33867;50.314;7.802;2022-07-23T21:58:56;100765.16;;;19.79;61.01
48089;BME280;33867;50.314;7.802;2022-07-23T22:07:21;100767.22;;;19.26;63.12
48089;BME280;33867;50.314;7.802;2022-07-23T22:10:50;100769.91;;;19.41;62.98
48089;BME280;33867;50.314;7.802;2022-07-23T22:19:48;100773.88;;;19.38;63.69
48089;BME280;33867;50.314;7.802;2022-07-23T22:23:23;100777.84;;;19.36;63.86
48089;BME280;33867;50.314;7.802;2022-07-23T22:31:07;100779.94;;;19.19;63.72
48089;BME280;33867;50.314;7.802;2022-07-23T22:39:14;100772.31;;;18.99;64.69
48089;BME280;33867;50.314;7.802;2022-07-23T22:43:02;100772.59;;;19.05;64.71
48089;BME280;33867;50.314;7.802;2022-07-23T22:46:35;100775.50;;;19.03;64.10
48089;BME280;33867;50.314;7.802;2022-07-23T22:50:08;100771.75;;;18.89;64.43
48089;BME280;33867;50.314;7.802;2022-07-23T22:53:31;100772.13;;;18.86;64.73
48089;BME280;33867;50.314;7.802;2022-07-23T22:57:06;100778.13;;;18.67;64.89
48089;BME280;33867;50.314;7.802;2022-07-23T23:00:41;100770.84;;;18.59;65.41
48089;BME280;33867;50.314;7.802;2022-07-23T23:21:24;100778.31;;;18.65;65.57
48089;BME280;33867;50.314;7.802;2022-07-23T23:29:42;100777.78;;;18.47;65.69
48089;BME280;33867;50.314;7.802;2022-07-23T23:34:08;100768.25;;;18.43;65.55
48089;BME280;33867;50.314;7.802;2022-07-23T23:38:25;100772.59;;;18.37;66.42
48089;BME280;33867;50.314;7.802;2022-07-23T23:42:40;100764.47;;;18.29;66.17
48089;BME280;33867;50.314;7.802;2022-07-23T23:46:47;100769.28;;;18.27;66.11
